Time;durP1;ratioP1;P1;durP2;ratioP2;P2;SDS_P1;SDS_P2;PMS_P1;PMS_P2;Temp;Humidity;BMP_temperature;BMP_pressure;BME280_temperature;BME280_humidity;BME280_pressure;Samples;Min_cycle;Max_cycle;Signal;HPM_P1;HPM_P2
2021/12/10 00:02:10;;;;;;;12.38;2.65;;;;;;;;;;5019489;28;21032;-58
2021/12/10 00:04:39;;;;;;;18.52;2.92;;;;;;;;;;5023815;28;20033;-58
2021/12/10 00:07:17;;;;;;;14.98;2.50;;;;;;;;;;5024800;28;20116;-58
2021/12/10 00:09:58;;;;;;;15.45;2.47;;;;;;;;;;5020592;28;20036;-58
2021/12/10 00:12:34;;;;;;;19.60;2.22;;;;;;;;;;5018466;28;20020;-58
2021/12/10 00:15:02;;;;;;;30.83;2.35;;;;;;;;;;5024571;28;20067;-58
2021/12/10 00:17:27;;;;;;;9.75;2.13;;;;;;;;;;5021215;28;20041;-58
2021/12/10 00:19:57;;;;;;;17.98;3.00;;;;;;;;;;5021233;28;20432;-59
2021/12/10 00:22:39;;;;;;;8.63;2.53;;;;;;;;;;5025008;28;20120;-58
2021/12/10 00:25:09;;;;;;;21.75;3.53;;;;;;;;;;5019162;28;20515;-58
2021/12/10 00:27:35;;;;;;;20.73;2.22;;;;;;;;;;5022379;28;20021;-58
2021/12/10 00:30:08;;;;;;;14.25;1.60;;;;;;;;;;5025279;28;20027;-58
2021/12/10 00:32:41;;;;;;;23.08;3.88;;;;;;;;;;5014938;28;20030;-58
2021/12/10 00:35:16;;;;;;;13.32;2.65;;;;;;;;;;5019280;28;20029;-58
2021/12/10 00:37:42;;;;;;;23.05;3.08;;;;;;;;;;5013731;28;20104;-58
2021/12/10 00:40:11;;;;;;;17.67;2.70;;;;;;;;;;5021488;28;20151;-58
2021/12/10 00:42:37;;;;;;;19.83;2.97;;;;;;;;;;5022603;28;20124;-57
2021/12/10 00:45:06;;;;;;;21.63;3.13;;;;;;;;;;5023505;28;20045;-60
2021/12/10 00:47:32;;;;;;;27.15;2.35;;;;;;;;;;5016348;28;20037;-60
2021/12/10 00:49:58;;;;;;;27.45;3.35;;;;;;;;;;5019760;28;20429;-58
2021/12/10 00:52:25;;;;;;;21.90;2.83;;;;;;;;;;5017488;28;20136;-59
2021/12/10 00:54:50;;;;;;;18.77;3.38;;;;;;;;;;5019007;28;20037;-60
2021/12/10 00:57:17;;;;;;;24.13;2.72;;;;;;;;;;5018853;28;20445;-60
2021/12/10 00:59:46;;;;;;;19.20;2.70;;;;;;;;;;5015030;28;20517;-60
2021/12/10 01:02:14;;;;;;;22.52;3.47;;;;;;;;;;5022419;28;20515;-60
2021/12/10 01:04:44;;;;;;;16.38;1.95;;;;;;;;;;5016829;28;20029;-60
2021/12/10 01:07:14;;;;;;;13.73;1.65;;;;;;;;;;5017604;28;20049;-60
2021/12/10 01:09:50;;;;;;;8.02;1.48;;;;;;;;;;5019340;28;20037;-60
2021/12/10 01:12:30;;;;;;;8.90;1.70;;;;;;;;;;5015928;28;20045;-60
2021/12/10 01:28:46;;;;;;;21.92;2.17;;;;;;;;;;5016818;28;20102;-60
2021/12/10 01:31:12;;;;;;;23.10;3.35;;;;;;;;;;5019903;28;20033;-59
2021/12/10 01:33:38;;;;;;;8.15;1.60;;;;;;;;;;5018707;28;20489;-60
2021/12/10 01:36:07;;;;;;;18.65;2.22;;;;;;;;;;5014446;28;20025;-59
2021/12/10 01:38:33;;;;;;;16.98;1.58;;;;;;;;;;5020519;28;20033;-59
2021/12/10 01:41:01;;;;;;;7.50;2.03;;;;;;;;;;5020859;28;20048;-60
2021/12/10 01:43:31;;;;;;;18.35;4.35;;;;;;;;;;5014506;28;20026;-59
2021/12/10 01:46:06;;;;;;;8.57;1.40;;;;;;;;;;5012436;28;20034;-59
2021/12/10 01:48:41;;;;;;;11.23;1.17;;;;;;;;;;5018913;28;20061;-59
2021/12/10 01:51:09;;;;;;;15.35;2.05;;;;;;;;;;5015263;28;20025;-59
2021/12/10 01:53:39;;;;;;;4.63;2.38;;;;;;;;;;5018055;28;20056;-59
2021/12/10 01:56:09;;;;;;;17.27;1.83;;;;;;;;;;5018430;28;20060;-58
2021/12/10 01:58:35;;;;;;;11.68;1.40;;;;;;;;;;5018804;28;20448;-60
2021/12/10 02:01:09;;;;;;;9.70;1.67;;;;;;;;;;5021777;28;20031;-59
2021/12/10 02:03:36;;;;;;;10.82;1.13;;;;;;;;;;5014903;28;20360;-59
2021/12/10 02:06:04;;;;;;;18.58;2.20;;;;;;;;;;5017722;28;20040;-60
2021/12/10 02:08:30;;;;;;;8.77;1.95;;;;;;;;;;5017795;28;20103;-60
2021/12/10 02:10:56;;;;;;;7.28;1.27;;;;;;;;;;5019668;28;20671;-60
2021/12/10 02:13:21;;;;;;;15.40;1.23;;;;;;;;;;5022816;28;20133;-60
2021/12/10 02:15:47;;;;;;;11.13;1.40;;;;;;;;;;5014964;28;20057;-60
2021/12/10 02:18:13;;;;;;;12.82;1.58;;;;;;;;;;5017048;28;20025;-59
2021/12/10 02:20:44;;;;;;;13.60;1.52;;;;;;;;;;5019006;28;20123;-60
2021/12/10 02:23:10;;;;;;;13.80;1.33;;;;;;;;;;5022737;28;20597;-60
2021/12/10 02:25:37;;;;;;;6.35;0.95;;;;;;;;;;5014070;28;20041;-59
2021/12/10 02:28:08;;;;;;;4.70;0.90;;;;;;;;;;5015347;28;20026;-60
2021/12/10 02:30:34;;;;;;;13.43;1.63;;;;;;;;;;5018607;28;20025;-60
2021/12/10 02:33:00;;;;;;;7.05;0.90;;;;;;;;;;5013911;28;20158;-60
2021/12/10 02:35:27;;;;;;;8.45;0.50;;;;;;;;;;5018765;28;20539;-60
2021/12/10 02:37:53;;;;;;;8.60;0.90;;;;;;;;;;5016636;28;20029;-59
2021/12/10 02:40:21;;;;;;;10.93;0.82;;;;;;;;;;5021194;28;20045;-59
2021/12/10 02:42:48;;;;;;;2.00;0.60;;;;;;;;;;5018399;28;20028;-59
2021/12/10 02:45:16;;;;;;;3.03;0.50;;;;;;;;;;5020701;28;20083;-60
2021/12/10 02:47:43;;;;;;;5.97;0.77;;;;;;;;;;5021371;28;20119;-60
2021/12/10 02:50:11;;;;;;;6.93;0.60;;;;;;;;;;5019885;28;20033;-60
2021/12/10 02:52:37;;;;;;;9.90;1.30;;;;;;;;;;5020264;28;20524;-60
2021/12/10 02:55:05;;;;;;;3.03;0.57;;;;;;;;;;5017173;28;20036;-60
2021/12/10 02:57:31;;;;;;;7.30;0.88;;;;;;;;;;5013081;28;20480;-60
2021/12/10 02:59:56;;;;;;;3.25;0.70;;;;;;;;;;5021219;28;20052;-60
2021/12/10 03:02:24;;;;;;;6.40;0.57;;;;;;;;;;5015156;28;20286;-60
2021/12/10 03:04:50;;;;;;;1.55;0.43;;;;;;;;;;5019316;28;20079;-60
2021/12/10 03:07:19;;;;;;;11.35;1.38;;;;;;;;;;5020192;28;20113;-60
2021/12/10 03:09:49;;;;;;;6.10;1.15;;;;;;;;;;5019697;28;20082;-59
2021/12/10 03:12:16;;;;;;;8.82;0.65;;;;;;;;;;5015078;28;20167;-59
2021/12/10 03:14:44;;;;;;;1.40;0.38;;;;;;;;;;5016215;28;20037;-60
2021/12/10 03:17:15;;;;;;;2.42;0.38;;;;;;;;;;5019145;28;20041;-60
2021/12/10 03:19:41;;;;;;;6.18;0.43;;;;;;;;;;5015954;28;20033;-58
2021/12/10 03:22:07;;;;;;;1.33;0.30;;;;;;;;;;5019715;28;20427;-60
2021/12/10 03:24:33;;;;;;;6.78;0.73;;;;;;;;;;5018681;28;20177;-60
2021/12/10 03:27:03;;;;;;;3.65;0.52;;;;;;;;;;5017821;28;20052;-60
2021/12/10 03:29:31;;;;;;;11.68;0.82;;;;;;;;;;5019033;28;20033;-60
2021/12/10 03:32:00;;;;;;;7.47;0.95;;;;;;;;;;5011795;28;20072;-60
2021/12/10 03:34:26;;;;;;;4.40;0.17;;;;;;;;;;5022481;28;20040;-59
2021/12/10 03:36:53;;;;;;;3.38;0.47;;;;;;;;;;5019235;28;20133;-60
2021/12/10 03:39:21;;;;;;;4.43;0.75;;;;;;;;;;5022039;28;20040;-59
2021/12/10 03:41:48;;;;;;;1.13;0.20;;;;;;;;;;5021859;28;20075;-59
2021/12/10 03:44:14;;;;;;;6.28;0.63;;;;;;;;;;5020177;28;20037;-59
2021/12/10 03:46:40;;;;;;;6.70;1.27;;;;;;;;;;5019894;28;20037;-59
2021/12/10 03:49:07;;;;;;;6.65;0.40;;;;;;;;;;5020328;28;20049;-59
2021/12/10 03:51:34;;;;;;;7.47;0.45;;;;;;;;;;5020346;28;20029;-59
2021/12/10 03:54:00;;;;;;;4.93;0.40;;;;;;;;;;5022691;28;20045;-60
2021/12/10 03:56:29;;;;;;;2.20;0.20;;;;;;;;;;5020689;28;20045;-60
2021/12/10 03:58:58;;;;;;;5.38;0.90;;;;;;;;;;5019558;28;20028;-60
2021/12/10 04:01:29;;;;;;;2.13;0.32;;;;;;;;;;5024438;28;20124;-60
2021/12/10 04:03:56;;;;;;;1.83;0.30;;;;;;;;;;5019897;28;20142;-60
2021/12/10 04:06:23;;;;;;;8.38;0.65;;;;;;;;;;5014135;28;20076;-60
2021/12/10 04:08:48;;;;;;;3.10;0.52;;;;;;;;;;5021596;28;20037;-59
2021/12/10 04:11:15;;;;;;;2.70;0.32;;;;;;;;;;5019733;28;20033;-59
2021/12/10 04:13:43;;;;;;;4.93;0.70;;;;;;;;;;5019043;28;20436;-59
2021/12/10 04:16:09;;;;;;;2.28;0.13;;;;;;;;;;5020373;28;20047;-60
2021/12/10 04:18:36;;;;;;;4.78;0.40;;;;;;;;;;5020311;28;20086;-59
2021/12/10 04:21:05;;;;;;;7.60;0.70;;;;;;;;;;5023481;28;20492;-60
2021/12/10 04:23:30;;;;;;;4.60;0.75;;;;;;;;;;5022879;28;20045;-60
2021/12/10 04:25:56;;;;;;;6.85;0.50;;;;;;;;;;5019227;28;20425;-60
2021/12/10 04:28:22;;;;;;;3.08;0.40;;;;;;;;;;5022043;28;20029;-60
2021/12/10 04:30:49;;;;;;;10.10;1.38;;;;;;;;;;5018902;28;20033;-59
2021/12/10 04:33:21;;;;;;;9.65;1.17;;;;;;;;;;5020937;28;20499;-60
2021/12/10 04:35:47;;;;;;;;;;;;;;;;;;5020834;28;20040;-59
2021/12/10 04:38:14;;;;;;;5.22;0.50;;;;;;;;;;5014584;28;20308;-59
2021/12/10 04:40:40;;;;;;;3.58;0.43;;;;;;;;;;5016032;28;20036;-60
2021/12/10 04:43:05;;;;;;;5.25;0.52;;;;;;;;;;5017207;28;20033;-60
2021/12/10 04:45:31;;;;;;;5.22;0.57;;;;;;;;;;5018226;28;20044;-59
2021/12/10 04:47:56;;;;;;;1.48;0.30;;;;;;;;;;5019351;28;20434;-60
2021/12/10 04:50:26;;;;;;;7.15;0.43;;;;;;;;;;5018600;28;20049;-59
2021/12/10 04:52:51;;;;;;;4.35;0.60;;;;;;;;;;5020151;28;20140;-60
2021/12/10 04:55:19;;;;;;;9.27;0.60;;;;;;;;;;5020997;28;20208;-59
2021/12/10 04:57:45;;;;;;;6.40;0.47;;;;;;;;;;5018981;28;20398;-60
2021/12/10 05:00:16;;;;;;;2.50;0.43;;;;;;;;;;5016481;28;20036;-59
2021/12/10 05:02:44;;;;;;;4.60;0.33;;;;;;;;;;5020979;28;20308;-60
2021/12/10 05:05:11;;;;;;;10.32;0.68;;;;;;;;;;5021713;28;20044;-59
2021/12/10 05:07:37;;;;;;;4.70;0.20;;;;;;;;;;5017450;28;20025;-59
2021/12/10 05:10:08;;;;;;;7.43;0.30;;;;;;;;;;5022135;28;20033;-60
2021/12/10 05:12:34;;;;;;;9.68;0.77;;;;;;;;;;5019645;28;20025;-59
2021/12/10 05:15:01;;;;;;;3.83;0.52;;;;;;;;;;5020069;28;20403;-59
2021/12/10 05:17:32;;;;;;;1.73;0.30;;;;;;;;;;5018589;28;20029;-59
2021/12/10 05:20:00;;;;;;;11.20;0.40;;;;;;;;;;5020084;28;20512;-59
2021/12/10 05:22:26;;;;;;;3.92;0.40;;;;;;;;;;5019744;28;20041;-59
2021/12/10 05:24:52;;;;;;;4.22;0.50;;;;;;;;;;5017043;28;20037;-59
2021/12/10 05:27:17;;;;;;;2.22;0.63;;;;;;;;;;5021341;28;20029;-59
2021/12/10 05:29:43;;;;;;;6.60;0.65;;;;;;;;;;5022185;28;20056;-59
2021/12/10 05:32:11;;;;;;;5.40;0.40;;;;;;;;;;5016742;28;20037;-59
2021/12/10 05:34:40;;;;;;;2.08;0.60;;;;;;;;;;5014652;28;20103;-59
2021/12/10 05:37:07;;;;;;;3.78;0.20;;;;;;;;;;5019258;28;20034;-59
2021/12/10 05:39:33;;;;;;;6.43;1.20;;;;;;;;;;5021948;28;20040;-59
2021/12/10 05:42:00;;;;;;;1.35;0.38;;;;;;;;;;5019116;28;20065;-59
2021/12/10 05:44:26;;;;;;;5.75;0.43;;;;;;;;;;5016939;28;20073;-60
2021/12/10 05:46:51;;;;;;;7.22;1.17;;;;;;;;;;5019604;28;20072;-59
2021/12/10 05:49:17;;;;;;;4.70;0.45;;;;;;;;;;5022646;28;20029;-60
2021/12/10 05:51:43;;;;;;;18.33;1.02;;;;;;;;;;5013045;28;20029;-60
2021/12/10 05:54:09;;;;;;;3.10;0.22;;;;;;;;;;5013644;28;20053;-60
2021/12/10 05:56:34;;;;;;;3.53;0.30;;;;;;;;;;5017589;28;20091;-60
2021/12/10 05:59:00;;;;;;;1.83;0.63;;;;;;;;;;5019441;28;20041;-59
2021/12/10 06:01:26;;;;;;;3.83;0.90;;;;;;;;;;5013416;28;20033;-60
2021/12/10 06:03:53;;;;;;;5.97;0.80;;;;;;;;;;5019099;28;20415;-59
2021/12/10 06:06:32;;;;;;;8.13;0.60;;;;;;;;;;5019347;28;20025;-59
2021/12/10 06:08:59;;;;;;;9.75;0.77;;;;;;;;;;5015824;28;20156;-61
2021/12/10 06:11:25;;;;;;;7.47;0.55;;;;;;;;;;5009880;28;20052;-60
2021/12/10 06:13:52;;;;;;;2.30;0.55;;;;;;;;;;5014152;28;20099;-59
2021/12/10 06:16:18;;;;;;;15.85;2.70;;;;;;;;;;5018849;28;20017;-59
2021/12/10 06:18:44;;;;;;;2.97;0.30;;;;;;;;;;5020944;28;20059;-59
2021/12/10 06:21:10;;;;;;;19.85;1.48;;;;;;;;;;5015703;28;20048;-59
2021/12/10 06:23:36;;;;;;;6.30;0.50;;;;;;;;;;5020400;28;20048;-59
2021/12/10 06:26:04;;;;;;;2.95;0.70;;;;;;;;;;5022106;28;20424;-59
2021/12/10 06:28:30;;;;;;;4.97;0.40;;;;;;;;;;5014965;28;20565;-59
2021/12/10 06:30:56;;;;;;;3.83;0.50;;;;;;;;;;5022359;28;20061;-59
2021/12/10 06:33:25;;;;;;;9.48;0.70;;;;;;;;;;5022459;28;20168;-59
2021/12/10 06:35:51;;;;;;;7.35;0.65;;;;;;;;;;5022993;28;20365;-59
2021/12/10 06:38:19;;;;;;;14.85;1.02;;;;;;;;;;5020228;28;20142;-59
2021/12/10 06:40:45;;;;;;;8.15;0.65;;;;;;;;;;5018647;28;20033;-60
2021/12/10 06:43:12;;;;;;;4.55;0.47;;;;;;;;;;5012506;28;20520;-59
2021/12/10 06:45:38;;;;;;;3.17;0.35;;;;;;;;;;5016274;28;20029;-59
2021/12/10 06:48:07;;;;;;;8.02;1.17;;;;;;;;;;5021508;28;20073;-59
2021/12/10 06:50:37;;;;;;;7.75;0.80;;;;;;;;;;5021483;28;20030;-60
2021/12/10 06:53:03;;;;;;;10.77;1.85;;;;;;;;;;5022299;28;20034;-59
2021/12/10 06:55:30;;;;;;;10.13;0.50;;;;;;;;;;5021153;28;20395;-59
2021/12/10 06:57:56;;;;;;;3.65;0.57;;;;;;;;;;5016158;28;20045;-59
2021/12/10 07:00:25;;;;;;;2.42;0.17;;;;;;;;;;5020623;28;20746;-57
2021/12/10 07:02:50;;;;;;;1.73;0.30;;;;;;;;;;5018343;28;20034;-58
2021/12/10 07:05:16;;;;;;;6.72;0.35;;;;;;;;;;5017484;28;20030;-57
2021/12/10 07:07:43;;;;;;;6.15;0.57;;;;;;;;;;5012006;28;20091;-58
2021/12/10 07:10:09;;;;;;;9.07;0.47;;;;;;;;;;5021425;28;20033;-60
2021/12/10 07:12:36;;;;;;;15.75;0.55;;;;;;;;;;5021378;28;20141;-59
2021/12/10 07:15:02;;;;;;;2.03;0.30;;;;;;;;;;5023730;28;20104;-60
2021/12/10 07:17:28;;;;;;;9.95;0.52;;;;;;;;;;5018023;28;20122;-59
2021/12/10 07:19:54;;;;;;;14.88;0.80;;;;;;;;;;5014374;28;20109;-57
2021/12/10 07:22:20;;;;;;;4.35;0.43;;;;;;;;;;5014480;28;20057;-59
2021/12/10 07:24:46;;;;;;;5.25;1.25;;;;;;;;;;5015894;28;20472;-58
2021/12/10 07:27:12;;;;;;;10.38;1.17;;;;;;;;;;5019124;28;20093;-60
2021/12/10 07:29:41;;;;;;;9.15;0.57;;;;;;;;;;5019406;28;20539;-59
2021/12/10 07:32:07;;;;;;;6.95;0.82;;;;;;;;;;5019497;28;20030;-59
2021/12/10 07:34:32;;;;;;;9.85;0.60;;;;;;;;;;5017129;28;20579;-59
2021/12/10 07:36:58;;;;;;;11.18;1.10;;;;;;;;;;5025396;28;20037;-59
2021/12/10 07:39:24;;;;;;;10.70;1.25;;;;;;;;;;5021306;28;20480;-59
2021/12/10 07:41:49;;;;;;;8.27;0.85;;;;;;;;;;5019228;28;20065;-60
2021/12/10 07:44:15;;;;;;;3.45;0.75;;;;;;;;;;5018455;28;20493;-59
2021/12/10 07:46:41;;;;;;;8.13;0.45;;;;;;;;;;5015941;28;20029;-59
2021/12/10 07:49:14;;;;;;;7.75;0.55;;;;;;;;;;5016756;28;20033;-60
2021/12/10 07:51:44;;;;;;;5.70;0.82;;;;;;;;;;5014639;28;20041;-60
2021/12/10 07:54:10;;;;;;;3.47;0.60;;;;;;;;;;5017293;28;20515;-60
2021/12/10 07:56:36;;;;;;;18.80;1.17;;;;;;;;;;5016534;28;20566;-59
2021/12/10 07:59:02;;;;;;;14.82;1.73;;;;;;;;;;5016552;28;20038;-59
2021/12/10 08:01:31;;;;;;;10.18;1.80;;;;;;;;;;5016327;28;20037;-59
2021/12/10 08:03:59;;;;;;;6.00;0.82;;;;;;;;;;5018525;28;20037;-60
2021/12/10 08:06:26;;;;;;;11.50;1.45;;;;;;;;;;5012701;28;20129;-59
2021/12/10 08:08:52;;;;;;;5.43;0.50;;;;;;;;;;5021401;28;20527;-59
2021/12/10 08:11:20;;;;;;;9.32;0.88;;;;;;;;;;5020781;28;20026;-60
2021/12/10 08:13:46;;;;;;;7.90;1.60;;;;;;;;;;5021433;28;20112;-60
2021/12/10 08:16:12;;;;;;;3.88;0.50;;;;;;;;;;5014824;28;21157;-59
2021/12/10 08:18:37;;;;;;;7.82;1.45;;;;;;;;;;5022178;28;20048;-59
2021/12/10 08:21:04;;;;;;;13.23;1.08;;;;;;;;;;5015863;28;20033;-59
2021/12/10 08:23:31;;;;;;;15.95;0.88;;;;;;;;;;5018374;28;20510;-58
2021/12/10 08:25:57;;;;;;;17.02;3.15;;;;;;;;;;5014523;28;20034;-59
2021/12/10 08:28:25;;;;;;;7.25;0.57;;;;;;;;;;5016219;28;20492;-59
2021/12/10 08:30:52;;;;;;;8.93;1.25;;;;;;;;;;5022531;28;20029;-59
2021/12/10 08:33:18;;;;;;;5.03;0.47;;;;;;;;;;5017596;28;20042;-60
2021/12/10 08:35:48;;;;;;;12.07;0.73;;;;;;;;;;5020092;28;20033;-58
2021/12/10 08:38:14;;;;;;;3.05;0.40;;;;;;;;;;5024194;28;20096;-58
2021/12/10 08:40:56;;;;;;;7.20;0.65;;;;;;;;;;5023689;28;20124;-58
2021/12/10 08:43:22;;;;;;;13.45;1.17;;;;;;;;;;5017067;28;20026;-58
2021/12/10 08:45:47;;;;;;;8.77;0.50;;;;;;;;;;5021933;28;20046;-58
2021/12/10 08:48:13;;;;;;;8.13;0.95;;;;;;;;;;5021460;28;20033;-59
2021/12/10 08:50:41;;;;;;;6.78;0.60;;;;;;;;;;5020560;28;20037;-59
2021/12/10 08:53:12;;;;;;;13.40;1.08;;;;;;;;;;5022145;28;20073;-59
2021/12/10 08:55:46;;;;;;;12.10;1.00;;;;;;;;;;5016092;28;20140;-60
2021/12/10 08:58:13;;;;;;;8.90;1.42;;;;;;;;;;5018384;28;20030;-60
2021/12/10 09:00:42;;;;;;;7.80;0.63;;;;;;;;;;5016374;28;20492;-60
2021/12/10 09:03:08;;;;;;;5.43;0.57;;;;;;;;;;5021042;28;20049;-58
2021/12/10 09:05:34;;;;;;;11.07;1.02;;;;;;;;;;5014686;28;20515;-58
2021/12/10 09:08:00;;;;;;;8.30;0.90;;;;;;;;;;5021971;28;20401;-59
2021/12/10 09:10:37;;;;;;;22.52;1.42;;;;;;;;;;5015480;28;20045;-58
2021/12/10 09:13:09;;;;;;;8.85;1.33;;;;;;;;;;5018732;28;20034;-58
2021/12/10 09:15:36;;;;;;;19.65;1.30;;;;;;;;;;5014936;28;20095;-58
2021/12/10 09:18:01;;;;;;;22.02;0.82;;;;;;;;;;5023030;28;20054;-60
2021/12/10 09:20:36;;;;;;;11.48;0.88;;;;;;;;;;5022585;28;20041;-58
2021/12/10 09:23:03;;;;;;;6.10;1.15;;;;;;;;;;5024865;28;20033;-58
2021/12/10 09:25:29;;;;;;;5.28;0.95;;;;;;;;;;5019945;28;20046;-59
2021/12/10 09:27:55;;;;;;;10.10;1.42;;;;;;;;;;5024032;28;20029;-60
2021/12/10 09:30:26;;;;;;;15.15;1.25;;;;;;;;;;5017347;28;20314;-58
2021/12/10 09:32:52;;;;;;;18.00;0.95;;;;;;;;;;5025006;28;20136;-59
2021/12/10 09:35:21;;;;;;;15.50;1.77;;;;;;;;;;5018032;28;20401;-59
2021/12/10 09:37:47;;;;;;;22.02;2.45;;;;;;;;;;5018538;28;20029;-58
2021/12/10 09:40:20;;;;;;;12.90;1.70;;;;;;;;;;5017970;28;20052;-58
2021/12/10 09:42:46;;;;;;;19.48;2.15;;;;;;;;;;5019468;28;20037;-58
2021/12/10 09:45:15;;;;;;;25.17;2.25;;;;;;;;;;5015737;28;20405;-58
2021/12/10 09:47:41;;;;;;;20.95;1.98;;;;;;;;;;5024653;28;20542;-60
2021/12/10 09:50:10;;;;;;;8.02;1.20;;;;;;;;;;5017600;28;20034;-60
2021/12/10 09:52:37;;;;;;;17.58;1.98;;;;;;;;;;5019295;28;20512;-59
2021/12/10 09:55:05;;;;;;;18.13;3.33;;;;;;;;;;5020163;28;20378;-59
2021/12/10 09:57:33;;;;;;;21.83;4.55;;;;;;;;;;5020288;28;20460;-61
2021/12/10 10:00:01;;;;;;;13.73;1.45;;;;;;;;;;5013721;28;20461;-59
2021/12/10 10:02:29;;;;;;;20.15;1.63;;;;;;;;;;5016702;28;20042;-59
2021/12/10 10:04:55;;;;;;;15.82;1.40;;;;;;;;;;5017774;28;20037;-59
2021/12/10 10:07:28;;;;;;;10.57;1.40;;;;;;;;;;5019551;28;20421;-59
2021/12/10 10:10:02;;;;;;;10.30;2.10;;;;;;;;;;5022580;28;20030;-58
2021/12/10 10:12:31;;;;;;;26.05;2.95;;;;;;;;;;5015697;28;20087;-59
2021/12/10 10:14:59;;;;;;;4.60;1.00;;;;;;;;;;5016066;28;20159;-59
2021/12/10 10:17:25;;;;;;;10.73;1.10;;;;;;;;;;5018528;28;20040;-59
2021/12/10 10:19:52;;;;;;;11.32;2.35;;;;;;;;;;5018931;28;20029;-59
2021/12/10 10:22:26;;;;;;;8.52;2.15;;;;;;;;;;5016888;28;20041;-59
2021/12/10 10:24:52;;;;;;;21.60;1.27;;;;;;;;;;5021752;28;20098;-60
2021/12/10 10:27:41;;;;;;;10.48;1.85;;;;;;;;;;5015018;28;20036;-59
2021/12/10 10:30:42;;;;;;;5.75;1.35;;;;;;;;;;5017452;28;20041;-60
2021/12/10 10:33:09;;;;;;;16.42;1.42;;;;;;;;;;5009858;28;20176;-59
2021/12/10 10:35:41;;;;;;;5.47;1.15;;;;;;;;;;5009609;28;20025;-60
2021/12/10 10:38:10;;;;;;;19.05;1.85;;;;;;;;;;5016750;28;20036;-60
2021/12/10 10:40:40;;;;;;;14.65;1.90;;;;;;;;;;5014391;28;20481;-60
2021/12/10 10:43:06;;;;;;;11.75;1.35;;;;;;;;;;5020607;28;20059;-60
2021/12/10 10:45:35;;;;;;;16.27;4.13;;;;;;;;;;5017413;28;20498;-60
2021/12/10 10:48:02;;;;;;;15.70;2.15;;;;;;;;;;5022606;28;20032;-60
2021/12/10 10:50:34;;;;;;;6.68;1.27;;;;;;;;;;5017345;28;20041;-60
2021/12/10 10:53:08;;;;;;;10.35;1.77;;;;;;;;;;5008934;28;20509;-60
2021/12/10 10:55:42;;;;;;;16.98;1.95;;;;;;;;;;5019276;28;20037;-60
2021/12/10 10:58:14;;;;;;;10.30;1.75;;;;;;;;;;5014933;28;20036;-59
2021/12/10 11:01:03;;;;;;;14.88;1.48;;;;;;;;;;5015269;28;20117;-60
2021/12/10 11:03:38;;;;;;;12.25;2.20;;;;;;;;;;5013661;28;20041;-60
2021/12/10 11:06:11;;;;;;;14.18;1.10;;;;;;;;;;5018972;28;20037;-60
2021/12/10 11:08:45;;;;;;;12.65;1.17;;;;;;;;;;5013192;28;20028;-60
2021/12/10 11:11:34;;;;;;;14.30;1.40;;;;;;;;;;5015849;28;20037;-59
2021/12/10 11:14:07;;;;;;;6.90;1.20;;;;;;;;;;5009856;28;20408;-60
2021/12/10 11:16:36;;;;;;;14.20;1.38;;;;;;;;;;5013923;28;20424;-59
2021/12/10 11:19:24;;;;;;;11.57;1.60;;;;;;;;;;5016660;28;20092;-60
2021/12/10 11:21:54;;;;;;;13.18;1.45;;;;;;;;;;5014750;28;20096;-60
2021/12/10 11:24:23;;;;;;;7.45;1.25;;;;;;;;;;5021337;28;20030;-60
2021/12/10 11:26:57;;;;;;;12.23;1.67;;;;;;;;;;5022629;28;20057;-60
2021/12/10 11:29:31;;;;;;;15.48;1.48;;;;;;;;;;5021213;28;20084;-60
2021/12/10 11:32:03;;;;;;;10.15;1.40;;;;;;;;;;5017286;28;20041;-61
2021/12/10 11:34:55;;;;;;;8.65;1.27;;;;;;;;;;5014270;28;20492;-60
2021/12/10 11:37:46;;;;;;;17.10;1.90;;;;;;;;;;5015052;28;20057;-60
2021/12/10 11:40:35;;;;;;;10.25;1.63;;;;;;;;;;5017228;28;20094;-60
2021/12/10 11:43:18;;;;;;;21.42;2.20;;;;;;;;;;5012827;28;20022;-60
2021/12/10 11:46:43;;;;;;;12.57;1.75;;;;;;;;;;5009221;28;20037;-59
2021/12/10 11:48:39;;;;;;;12.73;2.17;;;;;;;;;;5009293;28;20500;-60
2021/12/10 11:51:05;;;;;;;15.95;3.63;;;;;;;;;;5013452;28;20706;-60
2021/12/10 11:54:02;;;;;;;13.10;1.60;;;;;;;;;;5019569;28;20167;-59
2021/12/10 11:56:38;;;;;;;16.08;1.63;;;;;;;;;;5020710;28;20044;-58
2021/12/10 11:59:17;;;;;;;20.38;2.38;;;;;;;;;;5015556;28;20037;-58
2021/12/10 12:01:47;;;;;;;14.48;2.22;;;;;;;;;;5018555;28;20025;-61
2021/12/10 12:04:31;;;;;;;13.48;2.10;;;;;;;;;;5021864;28;20104;-60
2021/12/10 12:07:33;;;;;;;13.38;2.72;;;;;;;;;;5023467;28;20093;-60
2021/12/10 12:10:07;;;;;;;9.53;2.07;;;;;;;;;;5015630;28;20030;-60
2021/12/10 12:12:46;;;;;;;18.23;2.22;;;;;;;;;;5019258;28;20540;-60
2021/12/10 12:15:14;;;;;;;9.10;1.83;;;;;;;;;;5016535;28;20032;-60
2021/12/10 12:17:45;;;;;;;19.60;3.17;;;;;;;;;;5020525;28;20037;-61
2021/12/10 12:21:03;;;;;;;18.13;2.58;;;;;;;;;;5019399;28;20136;-60
2021/12/10 12:26:32;;;;;;;19.90;2.08;;;;;;;;;;5016025;28;20056;-61
2021/12/10 12:29:19;;;;;;;28.90;2.28;;;;;;;;;;5017263;28;20103;-60
2021/12/10 12:31:51;;;;;;;15.43;2.42;;;;;;;;;;5015880;28;20046;-60
2021/12/10 12:34:21;;;;;;;;;;;;;;;;;;5015583;28;20030;-60
2021/12/10 12:36:50;;;;;;;16.05;1.95;;;;;;;;;;5015961;28;20195;-60
2021/12/10 12:39:44;;;;;;;14.98;1.88;;;;;;;;;;5008897;28;20037;-60
2021/12/10 12:42:27;;;;;;;14.43;1.95;;;;;;;;;;5019676;28;20033;-60
2021/12/10 12:44:55;;;;;;;11.18;1.38;;;;;;;;;;5015435;28;20037;-60
2021/12/10 12:47:26;;;;;;;11.20;1.80;;;;;;;;;;5012929;28;20026;-60
2021/12/10 12:50:01;;;;;;;10.43;1.65;;;;;;;;;;5018248;28;20041;-59
2021/12/10 12:52:40;;;;;;;11.05;1.63;;;;;;;;;;5019088;28;20507;-59
2021/12/10 12:55:26;;;;;;;16.50;1.70;;;;;;;;;;5019193;28;20449;-59
2021/12/10 12:58:07;;;;;;;10.65;2.00;;;;;;;;;;5014807;28;20042;-60
2021/12/10 13:00:44;;;;;;;25.80;1.98;;;;;;;;;;5013990;28;20025;-60
2021/12/10 13:03:26;;;;;;;7.35;1.60;;;;;;;;;;5016225;28;20043;-60
2021/12/10 13:06:08;;;;;;;10.73;1.33;;;;;;;;;;5018412;28;20571;-60
2021/12/10 13:08:36;;;;;;;16.02;2.40;;;;;;;;;;5016788;28;20136;-59
2021/12/10 13:11:18;;;;;;;7.22;1.02;;;;;;;;;;5018863;28;20075;-60
2021/12/10 13:14:12;;;;;;;17.63;1.77;;;;;;;;;;5015622;28;20080;-59
2021/12/10 13:16:46;;;;;;;22.88;2.25;;;;;;;;;;5019458;28;20475;-60
2021/12/10 13:19:16;;;;;;;16.88;2.35;;;;;;;;;;5019139;28;20029;-60
2021/12/10 13:21:47;;;;;;;11.88;1.50;;;;;;;;;;5016170;28;20037;-60
2021/12/10 13:24:14;;;;;;;18.92;2.58;;;;;;;;;;5021306;28;20053;-59
2021/12/10 13:26:40;;;;;;;14.55;1.85;;;;;;;;;;5014194;28;20037;-59
2021/12/10 13:29:06;;;;;;;14.75;1.75;;;;;;;;;;5019333;28;20044;-60
2021/12/10 13:31:31;;;;;;;19.75;1.33;;;;;;;;;;5017817;28;20071;-60
2021/12/10 13:33:57;;;;;;;21.67;1.63;;;;;;;;;;4999867;28;20087;-60
2021/12/10 13:36:25;;;;;;;18.10;2.47;;;;;;;;;;5013626;28;20103;-60
2021/12/10 13:38:53;;;;;;;23.02;2.00;;;;;;;;;;5016844;28;20187;-60
2021/12/10 13:41:22;;;;;;;11.18;1.67;;;;;;;;;;5014911;28;20032;-60
2021/12/10 13:43:53;;;;;;;15.98;1.83;;;;;;;;;;5016726;28;20598;-60
2021/12/10 13:46:18;;;;;;;14.85;2.10;;;;;;;;;;5014481;28;20412;-60
2021/12/10 13:48:52;;;;;;;15.95;1.35;;;;;;;;;;5017276;28;20025;-60
2021/12/10 13:51:27;;;;;;;12.15;2.00;;;;;;;;;;5012818;28;20040;-60
2021/12/10 13:54:15;;;;;;;10.00;1.50;;;;;;;;;;5015988;28;20424;-60
2021/12/10 13:56:54;;;;;;;12.75;1.67;;;;;;;;;;5018677;28;20068;-60
2021/12/10 13:59:27;;;;;;;16.90;1.80;;;;;;;;;;5013451;28;20120;-60
2021/12/10 14:01:57;;;;;;;23.35;2.03;;;;;;;;;;5013347;28;20040;-60
2021/12/10 14:04:32;;;;;;;23.95;2.35;;;;;;;;;;5013224;28;20108;-59
2021/12/10 14:07:12;;;;;;;19.50;2.45;;;;;;;;;;5015903;28;20125;-59
2021/12/10 14:09:57;;;;;;;12.38;1.85;;;;;;;;;;5010971;28;20069;-60
2021/12/10 14:12:30;;;;;;;28.00;2.28;;;;;;;;;;5013624;28;20053;-59
2021/12/10 14:15:45;;;;;;;13.73;2.22;;;;;;;;;;5013048;28;20063;-59
2021/12/10 14:18:20;;;;;;;12.25;2.17;;;;;;;;;;5018570;28;20027;-59
2021/12/10 14:21:04;;;;;;;12.75;1.63;;;;;;;;;;5012596;28;20470;-60
2021/12/10 14:23:58;;;;;;;16.42;2.22;;;;;;;;;;5016166;28;20029;-60
2021/12/10 14:26:27;;;;;;;22.23;2.42;;;;;;;;;;5009877;28;20630;-59
2021/12/10 14:29:01;;;;;;;14.30;2.72;;;;;;;;;;5013393;28;20036;-60
2021/12/10 14:31:45;;;;;;;27.92;3.33;;;;;;;;;;5011966;28;20072;-60
2021/12/10 14:34:14;;;;;;;19.30;2.20;;;;;;;;;;5011111;28;20022;-60
2021/12/10 14:36:42;;;;;;;20.90;3.60;;;;;;;;;;5011892;28;20030;-60
2021/12/10 14:39:10;;;;;;;23.27;3.80;;;;;;;;;;5015062;28;20061;-60
2021/12/10 14:41:45;;;;;;;20.75;3.25;;;;;;;;;;5015177;28;20412;-60
2021/12/10 14:44:20;;;;;;;19.15;2.33;;;;;;;;;;5016825;28;20570;-60
2021/12/10 14:47:16;;;;;;;27.02;3.97;;;;;;;;;;5017621;28;20472;-59
2021/12/10 14:49:43;;;;;;;19.30;2.05;;;;;;;;;;5012754;28;20128;-60
2021/12/10 14:52:23;;;;;;;20.42;1.98;;;;;;;;;;5018431;28;20477;-60
2021/12/10 14:55:02;;;;;;;13.13;1.52;;;;;;;;;;5013151;28;20042;-60
2021/12/10 14:57:56;;;;;;;20.70;1.98;;;;;;;;;;5020023;28;20090;-60
2021/12/10 15:00:30;;;;;;;19.52;2.42;;;;;;;;;;5013100;28;20041;-60
2021/12/10 15:03:16;;;;;;;21.00;2.28;;;;;;;;;;5021867;28;20025;-60
2021/12/10 15:05:53;;;;;;;17.00;2.35;;;;;;;;;;5005696;28;20465;-60
2021/12/10 15:08:52;;;;;;;20.17;2.40;;;;;;;;;;5017354;28;20037;-59
2021/12/10 15:11:42;;;;;;;21.98;2.55;;;;;;;;;;5008453;28;20028;-60
2021/12/10 15:14:19;;;;;;;20.08;2.17;;;;;;;;;;5021469;28;20056;-60